Flight Track Log - Related Links

Times and Time Zones

All times are in EDT time to prevent confusion due to time zone crossing. See the LRC690 flight status page for this flight to view local times or setup timezone preferences in your user account.

Time Position Orientation Groundspeed Altitude Reporting Facility
EDT Latitude Longitude Course Direction KTS MPH feet Rate Location/Type
Mon 04:25:09 PM 4.6790 -74.1280 128° Southeast 9,300  Level FlightAware ADS-B
Mon 04:25:39 PM 4.6610 -74.1110 137° Southeast 10,100 1,600 Climbing FlightAware ADS-B
Mon 04:26:07 PM 4.6370 -74.1170 194° South 10,700 1,286 Climbing FlightAware ADS-B
Mon 04:26:50 PM 4.6110 -74.1500 232° Southwest 11,500 1,116 Climbing FlightAware ADS-B
Mon 04:27:33 PM 4.5950 -74.1990 252° West 12,300 1,116 Climbing FlightAware ADS-B
Mon 04:28:13 PM 4.6000 -74.2550 275° West 13,600 1,950 Climbing FlightAware ADS-B
Mon 04:28:41 PM 4.6090 -74.2920 284° West 14,500 1,929 Climbing FlightAware ADS-B
Mon 04:29:23 PM 4.6330 -74.3540 291° West 15,500 1,429 Climbing FlightAware ADS-B
Mon 04:30:05 PM 4.6600 -74.4120 295° West 16,800 1,857 Climbing FlightAware ADS-B
Mon 04:30:47 PM 4.6790 -74.4780 286° West 18,300 2,143 Climbing FlightAware ADS-B
Mon 04:31:22 PM 4.6970 -74.5320 288° West 18,800 857 Climbing FlightAware ADS-B
Mon 04:34:00 PM 4.8405 -74.7872 299° West  Level Estimated
Mon 04:35:00 PM 4.8950 -74.8841 299° West  Level Estimated
Mon 04:36:00 PM 4.9494 -74.9810 299° West  Level Estimated
Mon 04:37:00 PM 5.0039 -75.0780 299° West  Level Estimated
Mon 04:38:00 PM 5.0583 -75.1749 299° West  Level Estimated
Mon 04:39:00 PM 5.1127 -75.2719 299° West  Level Estimated
Mon 04:40:00 PM 5.1671 -75.3689 299° West  Level Estimated
Mon 04:41:00 PM 5.2215 -75.4660 299° West  Level Estimated
Mon 04:42:00 PM 5.2759 -75.5630 299° West  Level Estimated
Mon 04:43:00 PM 5.3302 -75.6600 299° West  Level Estimated
Mon 04:44:00 PM 5.3846 -75.7571 299° West  Level Estimated
Mon 04:45:00 PM 5.4389 -75.8542 299° West  Level Estimated
Mon 04:46:00 PM 5.4932 -75.9513 299° West  Level Estimated
Mon 04:47:00 PM 5.5475 -76.0484 299° West  Level Estimated
Mon 04:48:00 PM 5.6017 -76.1456 299° West  Level Estimated
Mon 04:49:00 PM 5.6560 -76.2427 299° West  Level Estimated
Mon 04:50:00 PM 5.7102 -76.3399 299° West  Level Estimated
Mon 04:51:00 PM 5.7645 -76.4371 299° West  Level Estimated
Mon 04:52:00 PM 5.8187 -76.5343 299° West  Level Estimated
Mon 04:53:00 PM 5.8729 -76.6316 299° West  Level Estimated
Mon 04:54:00 PM 5.9271 -76.7288 299° West  Level Estimated
Mon 04:55:00 PM 5.9812 -76.8261 299° West  Level Estimated
Mon 04:56:00 PM 6.0354 -76.9234 299° West  Level Estimated
Mon 04:57:00 PM 6.0895 -77.0207 299° West  Level Estimated
Mon 04:58:00 PM 6.1436 -77.1180 299° West  Level Estimated
Mon 04:59:00 PM 6.1977 -77.2154 299° West  Level Estimated
Mon 05:00:00 PM 6.2518 -77.3127 299° West  Level Estimated
Mon 05:01:00 PM 6.3058 -77.4101 299° West  Level Estimated
Mon 05:02:00 PM 6.3598 -77.5075 299° West  Level Estimated
Mon 05:03:00 PM 6.4139 -77.6050 299° West  Level Estimated
Mon 05:04:00 PM 6.4679 -77.7024 299° West  Level Estimated
Mon 05:05:00 PM 6.5219 -77.7999 299° West  Level Estimated
Mon 05:06:00 PM 6.5758 -77.8974 299° West  Level Estimated
Mon 05:07:00 PM 6.6297 -77.9949 299° West  Level Estimated
Mon 05:08:00 PM 6.6837 -78.0924 299° West  Level Estimated
Mon 05:09:00 PM 6.7376 -78.1900 299° West  Level Estimated
Mon 05:10:00 PM 6.7915 -78.2876 299° West  Level Estimated
Mon 05:11:00 PM 6.8453 -78.3852 299° West  Level Estimated
Mon 05:12:00 PM 6.8992 -78.4828 299° West  Level Estimated
Mon 05:13:00 PM 6.9530 -78.5804 299° West  Level Estimated
Mon 05:14:00 PM 7.0068 -78.6781 299° West  Level Estimated
Mon 05:15:00 PM 7.0606 -78.7758 299° West  Level Estimated
Mon 05:16:00 PM 7.1144 -78.8735 299° West  Level Estimated
Mon 05:17:00 PM 7.1681 -78.9712 299° West  Level Estimated
Mon 05:18:00 PM 7.2219 -79.0690 299° West  Level Estimated
Mon 05:19:00 PM 7.2756 -79.1668 299° West  Level Estimated
Mon 05:20:00 PM 7.3292 -79.2646 299° West  Level Estimated
Mon 05:21:00 PM 7.3829 -79.3624 299° West  Level Estimated
Mon 05:22:00 PM 7.4366 -79.4603 299° West  Level Estimated
Mon 05:23:00 PM 7.4902 -79.5582 299° West  Level Estimated
Mon 05:24:00 PM 7.5438 -79.6561 299° West  Level Estimated
Mon 05:25:00 PM 7.5974 -79.7540 299° West  Level Estimated
Mon 05:26:00 PM 7.6509 -79.8519 299° West  Level Estimated
Mon 05:27:00 PM 7.7044 -79.9499 299° West  Level Estimated
Mon 05:28:00 PM 7.7579 -80.0479 299° West  Level Estimated
Mon 05:29:00 PM 7.8114 -80.1459 299° West  Level Estimated
Mon 05:30:00 PM 7.8649 -80.2440 299° West  Level Estimated
Mon 05:31:00 PM 7.9183 -80.3420 299° West  Level Estimated
Mon 05:32:00 PM 7.9718 -80.4401 299° West  Level Estimated
Mon 05:33:00 PM 8.0252 -80.5383 299° West  Level Estimated
Mon 05:34:00 PM 8.0785 -80.6364 299° West  Level Estimated
Mon 05:35:00 PM 8.1319 -80.7346 299° West  Level Estimated
Mon 05:36:00 PM 8.1852 -80.8328 299° West  Level Estimated
Mon 05:37:00 PM 8.2385 -80.9310 299° West  Level Estimated
Mon 05:38:00 PM 8.2918 -81.0293 299° West  Level Estimated
Mon 05:39:00 PM 8.3450 -81.1276 299° West  Level Estimated
Mon 05:40:00 PM 8.3983 -81.2259 299° West  Level Estimated
Mon 05:41:00 PM 8.4515 -81.3242 299° West  Level Estimated
Mon 05:42:00 PM 8.5047 -81.4226 299° West  Level Estimated
Mon 05:43:00 PM 8.5578 -81.5210 299° West  Level Estimated
Mon 05:43:21 PM 8.9320 -82.9880 299° West 36,000  Level FlightAware ADS-B
Mon 05:44:00 PM 8.6110 -81.6194 299° West  Level Estimated
Mon 05:44:07 PM 8.9740 -83.0820 294° West 35,300  Level FlightAware ADS-B
Mon 05:44:41 PM 9.0050 -83.1520 294° West 34,400 -1,588 Descending FlightAware ADS-B
Mon 05:45:27 PM 9.0330 -83.2550 285° West 32,800 -2,087 Descending FlightAware ADS-B
Mon 05:46:07 PM 9.0540 -83.3390 284° West 31,600 -1,800 Descending FlightAware ADS-B
Mon 05:46:51 PM 9.0800 -83.4380 285° West 30,300 -1,773 Descending FlightAware ADS-B
Mon 05:47:33 PM 9.1030 -83.5270 285° West 29,200 -1,571 Descending FlightAware ADS-B
Mon 05:49:00 PM 9.1730 -83.7000 292° West 27,200 -1,379 Descending FlightAware ADS-B
Mon 05:49:43 PM 9.2260 -83.7930 300° West 25,200 -2,791 Descending FlightAware ADS-B
Mon 05:50:21 PM 9.2660 -83.8650 299° West 23,200 -3,158 Descending FlightAware ADS-B
Mon 05:50:37 PM 9.2770 -83.8990 288° West 22,000 -4,500 Descending FlightAware ADS-B
Mon 05:51:45 PM 9.3130 -84.0410 284° West 18,600 -3,000 Descending FlightAware ADS-B
Mon 05:52:27 PM 9.3630 -84.1070 308° West 18,000 -857 Descending FlightAware ADS-B
Mon 05:53:11 PM 9.4130 -84.1730 308° West 16,100 -2,591 Descending FlightAware ADS-B
Mon 05:53:55 PM 9.4600 -84.2350 308° West 16,000 -136 Descending FlightAware ADS-B
Mon 05:54:35 PM 9.4970 -84.2840 307° West 15,100 -1,350 Descending FlightAware ADS-B
Mon 05:57:00 PM 9.7620 -84.2439 North  Level Estimated
Mon 05:58:00 PM 9.8717 -84.2273 North  Level Estimated
Mon 05:59:00 PM 9.9813 -84.2107 North  Level Estimated
Mon 06:00:00 PM 9.9939 -84.2088 North  Level Estimated
Mon 06:00:09 PM 9.8960 -84.4530 North 7,000  Level FlightAware ADS-B
Mon 06:00:23 PM 9.9050 -84.4420 50° Northeast 7,000  Level FlightAware ADS-B
Mon 06:00:39 PM 9.9120 -84.4280 63° Northeast 6,900 -375 Descending FlightAware ADS-B
Mon 06:01:03 PM 9.9200 -84.4070 69° East 6,600 -750 Descending FlightAware ADS-B
Mon 06:01:27 PM 9.9280 -84.3850 70° East 6,200 -1,000 Descending FlightAware ADS-B
Mon 06:01:55 PM 9.9370 -84.3590 71° East 5,600 -1,286 Descending FlightAware ADS-B
Mon 06:02:25 PM 9.9480 -84.3320 68° East 5,000 -1,200 Descending FlightAware ADS-B
Mon 06:02:37 PM 9.9510 -84.3220 73° East 4,800 -1,000 Descending FlightAware ADS-B
Mon 06:03:01 PM 9.9580 -84.3040 68° East 4,600 -500 Descending FlightAware ADS-B
Mon 06:03:21 PM 9.9630 -84.2910 69° East 4,300 -900 Descending FlightAware ADS-B
Mon 06:03:33 PM 9.9670 -84.2810 68° East 4,100 -1,000 Descending FlightAware ADS-B
Mon 06:04:10 PM 9.9760 -84.2560 70° East 3,600 -811 Descending FlightAware ADS-B
Mon 06:06:00 PM 10.0000 -84.2167 301° West  Level FlightAware Approximate
Mon 06:07:00 PM 9.9939 -84.2088 301° West  Level Estimated
Mon 06:08:00 PM 9.9939 -84.2088 301° West  Level Estimated
Mon 06:09:00 PM 9.9939 -84.2088 301° West  Level Estimated
Mon 06:10:00 PM 9.9939 -84.2088 301° West  Level Estimated
Mon 06:11:00 PM 9.9939 -84.2088 301° West  Level Estimated
Mon 06:12:00 PM 9.9939 -84.2088 301° West  Level Estimated
Mon 06:13:00 PM 9.9939 -84.2088 301° West  Level Estimated
Mon 06:14:00 PM 9.9939 -84.2088 301° West  Level Estimated
Mon 06:15:00 PM 9.9939 -84.2088 301° West  Level Estimated
Mon 06:16:00 PM 9.9939 -84.2088 301° West  Level Estimated
Mon 06:17:00 PM 9.9939 -84.2088 301° West  Level Estimated
Mon 06:18:00 PM 9.9939 -84.2088 301° West  Level Estimated
Mon 06:19:00 PM 9.9939 -84.2088 301° West  Level Estimated
Mon 06:20:00 PM 9.9939 -84.2088 301° West  Level Estimated
Mon 06:21:00 PM 9.9939 -84.2088 301° West  Level Estimated
Mon 06:22:00 PM 9.9939 -84.2088 301° West  Level Estimated
Mon 06:23:00 PM 9.9939 -84.2088 301° West  Level Estimated

Login

Don't have an account? Register now (free) for customized features, flight alerts, and more!